sensor_id;sensor_type;location;lat;lon;timestamp;P1;durP1;ratioP1;P2;durP2;ratioP2
52962;SDS011;38827;53.024;6.596;2022-11-02T00:06:56;7.78;;;1.77;;
52962;SDS011;38827;53.024;6.596;2022-11-02T00:12:00;8.30;;;1.70;;
52962;SDS011;38827;53.024;6.596;2022-11-02T00:18:02;7.65;;;1.38;;
52962;SDS011;38827;53.024;6.596;2022-11-02T00:25:01;10.35;;;1.60;;
52962;SDS011;38827;53.024;6.596;2022-11-02T00:30:12;7.40;;;1.83;;
52962;SDS011;38827;53.024;6.596;2022-11-02T00:35:12;7.43;;;1.83;;
52962;SDS011;38827;53.024;6.596;2022-11-02T00:46:13;3.15;;;0.80;;
52962;SDS011;38827;53.024;6.596;2022-11-02T00:54:53;4.35;;;0.75;;
52962;SDS011;38827;53.024;6.596;2022-11-02T00:59:55;4.20;;;0.90;;
52962;SDS011;38827;53.024;6.596;2022-11-02T01:07:43;1.60;;;0.60;;
52962;SDS011;38827;53.024;6.596;2022-11-02T01:34:21;1.58;;;0.55;;
52962;SDS011;38827;53.024;6.596;2022-11-02T01:40:40;2.25;;;0.75;;
52962;SDS011;38827;53.024;6.596;2022-11-02T01:43:22;3.42;;;0.73;;
52962;SDS011;38827;53.024;6.596;2022-11-02T01:46:05;4.13;;;0.80;;
52962;SDS011;38827;53.024;6.596;2022-11-02T01:51:18;0.93;;;0.60;;
52962;SDS011;38827;53.024;6.596;2022-11-02T01:53:50;6.53;;;1.08;;
52962;SDS011;38827;53.024;6.596;2022-11-02T01:56:19;4.05;;;1.10;;
52962;SDS011;38827;53.024;6.596;2022-11-02T01:58:48;7.53;;;1.80;;
52962;SDS011;38827;53.024;6.596;2022-11-02T02:01:18;3.00;;;1.20;;
52962;SDS011;38827;53.024;6.596;2022-11-02T02:03:44;3.95;;;1.67;;
52962;SDS011;38827;53.024;6.596;2022-11-02T02:06:12;9.27;;;1.80;;
52962;SDS011;38827;53.024;6.596;2022-11-02T02:08:43;9.68;;;2.05;;
52962;SDS011;38827;53.024;6.596;2022-11-02T02:14:03;14.57;;;2.53;;
52962;SDS011;38827;53.024;6.596;2022-11-02T02:25:13;16.10;;;2.63;;
52962;SDS011;38827;53.024;6.596;2022-11-02T02:27:49;14.40;;;2.25;;
52962;SDS011;38827;53.024;6.596;2022-11-02T02:37:04;13.63;;;2.63;;
52962;SDS011;38827;53.024;6.596;2022-11-02T02:47:05;6.88;;;1.90;;
52962;SDS011;38827;53.024;6.596;2022-11-02T02:52:47;7.85;;;1.33;;
52962;SDS011;38827;53.024;6.596;2022-11-02T03:01:22;3.63;;;1.08;;
52962;SDS011;38827;53.024;6.596;2022-11-02T03:03:50;6.97;;;1.38;;
52962;SDS011;38827;53.024;6.596;2022-11-02T03:11:34;2.92;;;0.70;;
52962;SDS011;38827;53.024;6.596;2022-11-02T03:14:33;4.88;;;1.05;;
52962;SDS011;38827;53.024;6.596;2022-11-02T03:17:24;6.00;;;0.98;;
52962;SDS011;38827;53.024;6.596;2022-11-02T03:30:22;4.80;;;0.88;;
52962;SDS011;38827;53.024;6.596;2022-11-02T03:33:02;6.65;;;1.05;;
52962;SDS011;38827;53.024;6.596;2022-11-02T03:35:35;8.52;;;1.45;;
52962;SDS011;38827;53.024;6.596;2022-11-02T03:38:12;7.47;;;1.92;;
52962;SDS011;38827;53.024;6.596;2022-11-02T03:40:44;5.78;;;1.20;;
52962;SDS011;38827;53.024;6.596;2022-11-02T03:43:14;7.93;;;1.33;;
52962;SDS011;38827;53.024;6.596;2022-11-02T03:45:42;7.88;;;1.42;;
52962;SDS011;38827;53.024;6.596;2022-11-02T03:48:15;6.13;;;1.20;;
52962;SDS011;38827;53.024;6.596;2022-11-02T03:50:48;6.70;;;1.50;;
52962;SDS011;38827;53.024;6.596;2022-11-02T03:53:17;9.25;;;1.20;;
52962;SDS011;38827;53.024;6.596;2022-11-02T03:55:57;3.45;;;0.90;;
52962;SDS011;38827;53.024;6.596;2022-11-02T03:58:36;5.97;;;1.65;;
52962;SDS011;38827;53.024;6.596;2022-11-02T04:01:02;8.23;;;1.38;;
52962;SDS011;38827;53.024;6.596;2022-11-02T04:03:32;6.70;;;1.30;;
52962;SDS011;38827;53.024;6.596;2022-11-02T04:06:01;9.35;;;1.20;;
52962;SDS011;38827;53.024;6.596;2022-11-02T04:08:35;7.50;;;1.40;;
52962;SDS011;38827;53.024;6.596;2022-11-02T04:11:04;5.63;;;1.05;;
52962;SDS011;38827;53.024;6.596;2022-11-02T04:13:49;6.88;;;1.08;;
52962;SDS011;38827;53.024;6.596;2022-11-02T04:16:33;4.97;;;1.08;;
52962;SDS011;38827;53.024;6.596;2022-11-02T04:18:59;8.88;;;1.60;;
52962;SDS011;38827;53.024;6.596;2022-11-02T04:21:43;6.93;;;1.30;;
52962;SDS011;38827;53.024;6.596;2022-11-02T04:24:29;6.97;;;1.60;;
52962;SDS011;38827;53.024;6.596;2022-11-02T04:27:13;7.03;;;1.10;;
52962;SDS011;38827;53.024;6.596;2022-11-02T04:29:39;7.85;;;1.65;;
52962;SDS011;38827;53.024;6.596;2022-11-02T04:32:05;7.50;;;1.35;;
52962;SDS011;38827;53.024;6.596;2022-11-02T04:34:30;11.55;;;1.48;;
52962;SDS011;38827;53.024;6.596;2022-11-02T04:36:56;5.53;;;1.40;;
52962;SDS011;38827;53.024;6.596;2022-11-02T04:39:21;10.55;;;1.77;;
52962;SDS011;38827;53.024;6.596;2022-11-02T04:41:47;8.65;;;1.70;;
52962;SDS011;38827;53.024;6.596;2022-11-02T04:44:13;7.30;;;1.45;;
52962;SDS011;38827;53.024;6.596;2022-11-02T04:46:40;8.90;;;1.50;;
52962;SDS011;38827;53.024;6.596;2022-11-02T04:49:07;7.93;;;1.77;;
52962;SDS011;38827;53.024;6.596;2022-11-02T04:51:33;7.50;;;1.27;;
52962;SDS011;38827;53.024;6.596;2022-11-02T04:53:59;7.28;;;1.60;;
52962;SDS011;38827;53.024;6.596;2022-11-02T04:56:25;5.53;;;1.67;;
52962;SDS011;38827;53.024;6.596;2022-11-02T04:58:52;5.75;;;1.27;;
52962;SDS011;38827;53.024;6.596;2022-11-02T05:01:21;7.00;;;1.40;;
52962;SDS011;38827;53.024;6.596;2022-11-02T05:03:49;7.13;;;1.55;;
52962;SDS011;38827;53.024;6.596;2022-11-02T05:06:20;9.77;;;1.75;;
52962;SDS011;38827;53.024;6.596;2022-11-02T05:08:47;8.23;;;1.50;;
52962;SDS011;38827;53.024;6.596;2022-11-02T05:11:12;9.98;;;1.80;;
52962;SDS011;38827;53.024;6.596;2022-11-02T05:13:39;9.82;;;2.45;;
52962;SDS011;38827;53.024;6.596;2022-11-02T05:16:06;10.20;;;2.00;;
52962;SDS011;38827;53.024;6.596;2022-11-02T05:18:34;13.30;;;2.00;;
52962;SDS011;38827;53.024;6.596;2022-11-02T05:21:00;10.32;;;2.28;;
52962;SDS011;38827;53.024;6.596;2022-11-02T05:23:26;13.02;;;2.38;;
52962;SDS011;38827;53.024;6.596;2022-11-02T05:25:53;11.05;;;2.05;;
52962;SDS011;38827;53.024;6.596;2022-11-02T05:28:20;8.98;;;2.17;;
52962;SDS011;38827;53.024;6.596;2022-11-02T05:30:46;13.85;;;2.50;;
52962;SDS011;38827;53.024;6.596;2022-11-02T05:33:12;8.75;;;2.20;;
52962;SDS011;38827;53.024;6.596;2022-11-02T05:35:37;6.65;;;1.55;;
52962;SDS011;38827;53.024;6.596;2022-11-02T05:38:11;11.20;;;2.45;;
52962;SDS011;38827;53.024;6.596;2022-11-02T05:40:37;11.80;;;2.90;;
52962;SDS011;38827;53.024;6.596;2022-11-02T05:45:31;9.52;;;2.00;;
52962;SDS011;38827;53.024;6.596;2022-11-02T05:47:58;10.95;;;2.38;;
52962;SDS011;38827;53.024;6.596;2022-11-02T05:50:25;13.80;;;2.47;;
52962;SDS011;38827;53.024;6.596;2022-11-02T05:52:51;10.70;;;1.95;;
52962;SDS011;38827;53.024;6.596;2022-11-02T05:55:17;13.13;;;2.83;;
52962;SDS011;38827;53.024;6.596;2022-11-02T05:57:43;13.13;;;2.45;;
52962;SDS011;38827;53.024;6.596;2022-11-02T06:00:13;8.10;;;2.65;;
52962;SDS011;38827;53.024;6.596;2022-11-02T06:02:39;8.73;;;2.15;;
52962;SDS011;38827;53.024;6.596;2022-11-02T06:05:08;10.35;;;1.98;;
52962;SDS011;38827;53.024;6.596;2022-11-02T06:07:34;9.63;;;1.95;;
52962;SDS011;38827;53.024;6.596;2022-11-02T06:09:59;13.90;;;2.10;;
52962;SDS011;38827;53.024;6.596;2022-11-02T06:12:26;8.57;;;2.10;;
52962;SDS011;38827;53.024;6.596;2022-11-02T06:14:52;6.20;;;1.88;;
52962;SDS011;38827;53.024;6.596;2022-11-02T06:17:18;10.48;;;1.92;;
52962;SDS011;38827;53.024;6.596;2022-11-02T06:19:44;9.15;;;2.03;;
52962;SDS011;38827;53.024;6.596;2022-11-02T06:22:10;11.95;;;2.35;;
52962;SDS011;38827;53.024;6.596;2022-11-02T06:24:35;10.15;;;2.35;;
52962;SDS011;38827;53.024;6.596;2022-11-02T06:27:01;14.55;;;2.88;;
52962;SDS011;38827;53.024;6.596;2022-11-02T06:29:27;17.52;;;3.03;;
52962;SDS011;38827;53.024;6.596;2022-11-02T06:31:53;17.60;;;3.45;;
52962;SDS011;38827;53.024;6.596;2022-11-02T06:34:18;11.45;;;2.40;;
52962;SDS011;38827;53.024;6.596;2022-11-02T06:36:53;14.60;;;2.53;;
52962;SDS011;38827;53.024;6.596;2022-11-02T06:39:19;15.43;;;3.15;;
52962;SDS011;38827;53.024;6.596;2022-11-02T06:41:45;11.95;;;3.38;;
52962;SDS011;38827;53.024;6.596;2022-11-02T06:44:13;13.23;;;2.30;;
52962;SDS011;38827;53.024;6.596;2022-11-02T06:49:36;16.42;;;2.60;;
52962;SDS011;38827;53.024;6.596;2022-11-02T06:52:08;10.95;;;2.97;;
52962;SDS011;38827;53.024;6.596;2022-11-02T06:54:37;13.70;;;3.00;;
52962;SDS011;38827;53.024;6.596;2022-11-02T06:57:03;11.60;;;2.58;;
52962;SDS011;38827;53.024;6.596;2022-11-02T06:59:28;13.25;;;2.78;;
52962;SDS011;38827;53.024;6.596;2022-11-02T07:01:54;15.52;;;2.20;;
52962;SDS011;38827;53.024;6.596;2022-11-02T07:04:20;10.52;;;2.20;;
52962;SDS011;38827;53.024;6.596;2022-11-02T07:06:46;12.38;;;2.45;;
52962;SDS011;38827;53.024;6.596;2022-11-02T07:11:52;12.77;;;2.70;;
52962;SDS011;38827;53.024;6.596;2022-11-02T07:14:27;15.52;;;3.00;;
52962;SDS011;38827;53.024;6.596;2022-11-02T07:16:53;10.15;;;2.72;;
52962;SDS011;38827;53.024;6.596;2022-11-02T07:19:23;10.63;;;2.58;;
52962;SDS011;38827;53.024;6.596;2022-11-02T07:21:49;15.57;;;3.40;;
52962;SDS011;38827;53.024;6.596;2022-11-02T07:24:14;13.13;;;2.83;;
52962;SDS011;38827;53.024;6.596;2022-11-02T07:26:40;10.32;;;2.58;;
52962;SDS011;38827;53.024;6.596;2022-11-02T07:29:06;14.32;;;2.53;;
52962;SDS011;38827;53.024;6.596;2022-11-02T07:31:31;12.70;;;2.53;;
52962;SDS011;38827;53.024;6.596;2022-11-02T07:33:57;14.18;;;2.65;;
52962;SDS011;38827;53.024;6.596;2022-11-02T07:36:23;12.30;;;2.58;;
52962;SDS011;38827;53.024;6.596;2022-11-02T07:38:48;13.48;;;2.47;;
52962;SDS011;38827;53.024;6.596;2022-11-02T07:41:14;13.40;;;3.00;;
52962;SDS011;38827;53.024;6.596;2022-11-02T07:43:39;13.15;;;2.55;;
52962;SDS011;38827;53.024;6.596;2022-11-02T07:46:05;13.57;;;2.28;;
52962;SDS011;38827;53.024;6.596;2022-11-02T07:48:31;10.32;;;2.35;;
52962;SDS011;38827;53.024;6.596;2022-11-02T07:50:57;15.43;;;2.42;;
52962;SDS011;38827;53.024;6.596;2022-11-02T07:53:24;13.70;;;2.40;;
52962;SDS011;38827;53.024;6.596;2022-11-02T07:55:52;19.77;;;3.40;;
52962;SDS011;38827;53.024;6.596;2022-11-02T07:58:20;15.95;;;2.35;;
52962;SDS011;38827;53.024;6.596;2022-11-02T08:00:46;13.82;;;2.30;;
52962;SDS011;38827;53.024;6.596;2022-11-02T08:03:11;9.85;;;2.08;;
52962;SDS011;38827;53.024;6.596;2022-11-02T08:05:39;11.27;;;2.10;;
52962;SDS011;38827;53.024;6.596;2022-11-02T08:08:10;11.10;;;1.70;;
52962;SDS011;38827;53.024;6.596;2022-11-02T08:10:36;9.63;;;1.85;;
52962;SDS011;38827;53.024;6.596;2022-11-02T08:13:02;8.88;;;1.70;;
52962;SDS011;38827;53.024;6.596;2022-11-02T08:15:28;7.88;;;1.92;;
52962;SDS011;38827;53.024;6.596;2022-11-02T08:18:04;11.45;;;2.05;;
52962;SDS011;38827;53.024;6.596;2022-11-02T08:20:30;8.45;;;1.50;;
52962;SDS011;38827;53.024;6.596;2022-11-02T08:22:57;8.20;;;1.45;;
52962;SDS011;38827;53.024;6.596;2022-11-02T08:25:25;7.60;;;1.50;;
52962;SDS011;38827;53.024;6.596;2022-11-02T08:27:58;11.40;;;1.95;;
52962;SDS011;38827;53.024;6.596;2022-11-02T08:30:26;7.22;;;1.65;;
52962;SDS011;38827;53.024;6.596;2022-11-02T08:32:53;9.43;;;1.63;;
52962;SDS011;38827;53.024;6.596;2022-11-02T08:35:19;5.55;;;1.25;;
52962;SDS011;38827;53.024;6.596;2022-11-02T08:37:44;7.88;;;1.70;;
52962;SDS011;38827;53.024;6.596;2022-11-02T08:40:17;8.82;;;1.60;;
52962;SDS011;38827;53.024;6.596;2022-11-02T08:42:42;7.90;;;1.35;;
52962;SDS011;38827;53.024;6.596;2022-11-02T08:45:08;7.80;;;1.58;;
52962;SDS011;38827;53.024;6.596;2022-11-02T08:47:38;6.47;;;1.30;;
52962;SDS011;38827;53.024;6.596;2022-11-02T08:50:05;6.22;;;1.60;;
52962;SDS011;38827;53.024;6.596;2022-11-02T08:52:35;6.97;;;1.40;;
52962;SDS011;38827;53.024;6.596;2022-11-02T08:55:02;5.95;;;1.00;;
52962;SDS011;38827;53.024;6.596;2022-11-02T08:57:28;8.18;;;1.30;;
52962;SDS011;38827;53.024;6.596;2022-11-02T08:59:58;4.97;;;1.20;;
52962;SDS011;38827;53.024;6.596;2022-11-02T09:02:24;4.97;;;1.00;;
52962;SDS011;38827;53.024;6.596;2022-11-02T09:04:49;7.17;;;1.60;;
52962;SDS011;38827;53.024;6.596;2022-11-02T09:07:15;6.40;;;1.23;;
52962;SDS011;38827;53.024;6.596;2022-11-02T09:09:43;6.90;;;1.27;;
52962;SDS011;38827;53.024;6.596;2022-11-02T09:12:11;4.63;;;1.30;;
52962;SDS011;38827;53.024;6.596;2022-11-02T09:14:37;7.67;;;1.20;;
52962;SDS011;38827;53.024;6.596;2022-11-02T09:17:03;5.27;;;1.50;;
52962;SDS011;38827;53.024;6.596;2022-11-02T09:19:28;5.23;;;0.97;;
52962;SDS011;38827;53.024;6.596;2022-11-02T09:21:54;5.90;;;1.50;;
52962;SDS011;38827;53.024;6.596;2022-11-02T09:24:22;6.25;;;1.33;;
52962;SDS011;38827;53.024;6.596;2022-11-02T09:26:50;6.57;;;1.33;;
52962;SDS011;38827;53.024;6.596;2022-11-02T09:29:16;5.00;;;1.20;;
52962;SDS011;38827;53.024;6.596;2022-11-02T09:31:42;5.33;;;1.43;;
52962;SDS011;38827;53.024;6.596;2022-11-02T09:34:08;8.13;;;1.50;;
52962;SDS011;38827;53.024;6.596;2022-11-02T09:36:33;6.80;;;1.50;;
52962;SDS011;38827;53.024;6.596;2022-11-02T09:38:59;5.30;;;1.40;;
52962;SDS011;38827;53.024;6.596;2022-11-02T09:44:08;9.95;;;1.50;;
52962;SDS011;38827;53.024;6.596;2022-11-02T09:46:43;8.27;;;1.55;;
52962;SDS011;38827;53.024;6.596;2022-11-02T09:51:41;5.70;;;1.20;;
52962;SDS011;38827;53.024;6.596;2022-11-02T09:57:09;5.57;;;1.47;;
52962;SDS011;38827;53.024;6.596;2022-11-02T09:59:41;5.65;;;1.10;;
52962;SDS011;38827;53.024;6.596;2022-11-02T10:10:44;7.97;;;1.38;;
52962;SDS011;38827;53.024;6.596;2022-11-02T10:15:42;6.68;;;1.30;;
52962;SDS011;38827;53.024;6.596;2022-11-02T10:18:15;6.13;;;1.45;;
52962;SDS011;38827;53.024;6.596;2022-11-02T10:20:44;6.88;;;1.55;;
52962;SDS011;38827;53.024;6.596;2022-11-02T10:23:17;8.85;;;1.45;;
52962;SDS011;38827;53.024;6.596;2022-11-02T10:25:46;5.72;;;1.50;;
52962;SDS011;38827;53.024;6.596;2022-11-02T10:28:14;8.05;;;1.77;;
52962;SDS011;38827;53.024;6.596;2022-11-02T10:30:47;9.18;;;1.73;;
52962;SDS011;38827;53.024;6.596;2022-11-02T10:33:16;7.68;;;1.80;;
52962;SDS011;38827;53.024;6.596;2022-11-02T10:35:46;6.88;;;1.40;;
52962;SDS011;38827;53.024;6.596;2022-11-02T10:41:05;5.65;;;1.13;;
52962;SDS011;38827;53.024;6.596;2022-11-02T10:47:28;8.05;;;1.52;;
52962;SDS011;38827;53.024;6.596;2022-11-02T10:53:09;7.82;;;1.70;;
52962;SDS011;38827;53.024;6.596;2022-11-02T10:55:58;10.35;;;1.83;;
52962;SDS011;38827;53.024;6.596;2022-11-02T10:58:30;8.95;;;1.52;;
52962;SDS011;38827;53.024;6.596;2022-11-02T11:01:07;8.75;;;1.80;;
52962;SDS011;38827;53.024;6.596;2022-11-02T11:06:45;7.05;;;1.58;;
52962;SDS011;38827;53.024;6.596;2022-11-02T11:09:18;6.97;;;1.35;;
52962;SDS011;38827;53.024;6.596;2022-11-02T11:12:06;9.30;;;1.40;;
52962;SDS011;38827;53.024;6.596;2022-11-02T11:14:45;6.85;;;1.13;;
52962;SDS011;38827;53.024;6.596;2022-11-02T11:17:23;10.45;;;1.55;;
52962;SDS011;38827;53.024;6.596;2022-11-02T11:19:53;8.30;;;1.50;;
52962;SDS011;38827;53.024;6.596;2022-11-02T11:33:47;6.97;;;1.50;;
52962;SDS011;38827;53.024;6.596;2022-11-02T11:36:26;7.57;;;1.42;;
52962;SDS011;38827;53.024;6.596;2022-11-02T11:38:55;8.30;;;1.35;;
52962;SDS011;38827;53.024;6.596;2022-11-02T11:41:26;6.40;;;1.48;;
52962;SDS011;38827;53.024;6.596;2022-11-02T11:43:55;7.43;;;1.48;;
52962;SDS011;38827;53.024;6.596;2022-11-02T11:46:21;8.00;;;1.30;;
52962;SDS011;38827;53.024;6.596;2022-11-02T11:48:51;5.83;;;1.30;;
52962;SDS011;38827;53.024;6.596;2022-11-02T11:54:18;5.25;;;1.10;;
52962;SDS011;38827;53.024;6.596;2022-11-02T11:56:52;9.25;;;1.30;;
52962;SDS011;38827;53.024;6.596;2022-11-02T11:59:46;7.80;;;1.95;;
52962;SDS011;38827;53.024;6.596;2022-11-02T12:04:57;7.85;;;1.70;;
52962;SDS011;38827;53.024;6.596;2022-11-02T12:10:58;7.43;;;1.40;;
52962;SDS011;38827;53.024;6.596;2022-11-02T12:19:11;10.02;;;1.10;;
52962;SDS011;38827;53.024;6.596;2022-11-02T12:22:08;8.00;;;1.52;;
52962;SDS011;38827;53.024;6.596;2022-11-02T12:28:03;9.15;;;1.15;;
52962;SDS011;38827;53.024;6.596;2022-11-02T12:33:18;8.32;;;1.52;;
52962;SDS011;38827;53.024;6.596;2022-11-02T12:35:52;7.65;;;1.55;;
52962;SDS011;38827;53.024;6.596;2022-11-02T12:38:38;9.60;;;1.30;;
52962;SDS011;38827;53.024;6.596;2022-11-02T12:43:40;9.95;;;1.45;;
52962;SDS011;38827;53.024;6.596;2022-11-02T12:52:05;8.68;;;1.42;;
52962;SDS011;38827;53.024;6.596;2022-11-02T12:55:05;9.18;;;1.70;;
52962;SDS011;38827;53.024;6.596;2022-11-02T12:57:41;5.65;;;1.50;;
52962;SDS011;38827;53.024;6.596;2022-11-02T13:00:30;7.07;;;1.35;;
52962;SDS011;38827;53.024;6.596;2022-11-02T13:02:58;7.70;;;1.58;;
52962;SDS011;38827;53.024;6.596;2022-11-02T13:12:09;11.40;;;1.88;;
52962;SDS011;38827;53.024;6.596;2022-11-02T13:14:45;8.70;;;1.70;;
52962;SDS011;38827;53.024;6.596;2022-11-02T13:17:20;8.75;;;1.63;;
52962;SDS011;38827;53.024;6.596;2022-11-02T13:19:51;6.40;;;1.50;;
52962;SDS011;38827;53.024;6.596;2022-11-02T13:22:33;7.45;;;1.50;;
52962;SDS011;38827;53.024;6.596;2022-11-02T13:25:03;8.13;;;1.45;;
52962;SDS011;38827;53.024;6.596;2022-11-02T13:27:49;9.40;;;2.20;;
52962;SDS011;38827;53.024;6.596;2022-11-02T13:30:18;8.80;;;1.63;;
52962;SDS011;38827;53.024;6.596;2022-11-02T13:32:58;12.18;;;1.85;;
52962;SDS011;38827;53.024;6.596;2022-11-02T13:35:35;8.05;;;1.60;;
52962;SDS011;38827;53.024;6.596;2022-11-02T13:43:52;5.68;;;1.35;;
52962;SDS011;38827;53.024;6.596;2022-11-02T13:46:23;7.18;;;1.13;;
52962;SDS011;38827;53.024;6.596;2022-11-02T13:56:54;6.32;;;1.20;;
52962;SDS011;38827;53.024;6.596;2022-11-02T13:59:31;7.10;;;1.50;;
52962;SDS011;38827;53.024;6.596;2022-11-02T14:02:03;8.15;;;1.58;;
52962;SDS011;38827;53.024;6.596;2022-11-02T14:04:36;10.98;;;1.48;;
52962;SDS011;38827;53.024;6.596;2022-11-02T14:07:08;8.57;;;1.52;;
52962;SDS011;38827;53.024;6.596;2022-11-02T14:09:54;8.98;;;1.50;;
52962;SDS011;38827;53.024;6.596;2022-11-02T14:12:28;10.23;;;1.40;;
52962;SDS011;38827;53.024;6.596;2022-11-02T14:20:33;10.40;;;1.58;;
52962;SDS011;38827;53.024;6.596;2022-11-02T14:46:46;17.10;;;1.77;;
52962;SDS011;38827;53.024;6.596;2022-11-02T14:49:34;11.00;;;1.65;;
52962;SDS011;38827;53.024;6.596;2022-11-02T14:52:06;11.52;;;1.75;;
52962;SDS011;38827;53.024;6.596;2022-11-02T14:54:51;8.90;;;1.40;;
52962;SDS011;38827;53.024;6.596;2022-11-02T14:57:31;11.55;;;1.83;;
52962;SDS011;38827;53.024;6.596;2022-11-02T15:00:03;10.07;;;1.60;;
52962;SDS011;38827;53.024;6.596;2022-11-02T15:02:41;12.70;;;2.53;;
52962;SDS011;38827;53.024;6.596;2022-11-02T15:08:03;11.65;;;1.88;;
52962;SDS011;38827;53.024;6.596;2022-11-02T15:10:35;9.70;;;1.30;;
52962;SDS011;38827;53.024;6.596;2022-11-02T15:13:48;14.13;;;2.00;;
52962;SDS011;38827;53.024;6.596;2022-11-02T15:18:37;9.75;;;2.20;;
52962;SDS011;38827;53.024;6.596;2022-11-02T15:27:05;11.38;;;1.83;;
52962;SDS011;38827;53.024;6.596;2022-11-02T15:29:43;7.93;;;1.70;;
52962;SDS011;38827;53.024;6.596;2022-11-02T15:32:28;15.43;;;2.33;;
52962;SDS011;38827;53.024;6.596;2022-11-02T15:34:58;11.07;;;1.90;;
52962;SDS011;38827;53.024;6.596;2022-11-02T15:37:43;11.37;;;2.23;;
52962;SDS011;38827;53.024;6.596;2022-11-02T15:40:16;12.82;;;1.88;;
52962;SDS011;38827;53.024;6.596;2022-11-02T15:43:06;9.75;;;2.22;;
52962;SDS011;38827;53.024;6.596;2022-11-02T15:45:51;10.13;;;2.10;;
52962;SDS011;38827;53.024;6.596;2022-11-02T15:51:47;12.15;;;2.40;;
52962;SDS011;38827;53.024;6.596;2022-11-02T15:54:24;12.48;;;2.20;;
52962;SDS011;38827;53.024;6.596;2022-11-02T15:57:25;11.88;;;2.85;;
52962;SDS011;38827;53.024;6.596;2022-11-02T16:02:40;9.10;;;2.13;;
52962;SDS011;38827;53.024;6.596;2022-11-02T16:05:22;9.40;;;2.35;;
52962;SDS011;38827;53.024;6.596;2022-11-02T16:13:10;10.02;;;1.98;;
52962;SDS011;38827;53.024;6.596;2022-11-02T16:15:44;9.85;;;3.05;;
52962;SDS011;38827;53.024;6.596;2022-11-02T16:18:21;17.00;;;2.45;;
52962;SDS011;38827;53.024;6.596;2022-11-02T16:21:01;11.65;;;2.95;;
52962;SDS011;38827;53.024;6.596;2022-11-02T16:23:57;16.52;;;3.20;;
52962;SDS011;38827;53.024;6.596;2022-11-02T16:26:24;9.27;;;1.80;;
52962;SDS011;38827;53.024;6.596;2022-11-02T16:28:54;9.52;;;1.95;;
52962;SDS011;38827;53.024;6.596;2022-11-02T16:31:25;10.48;;;2.22;;
52962;SDS011;38827;53.024;6.596;2022-11-02T16:33:56;8.75;;;1.70;;
52962;SDS011;38827;53.024;6.596;2022-11-02T16:36:31;8.20;;;2.10;;
52962;SDS011;38827;53.024;6.596;2022-11-02T16:41:38;9.10;;;1.80;;
52962;SDS011;38827;53.024;6.596;2022-11-02T16:44:07;10.27;;;1.80;;
52962;SDS011;38827;53.024;6.596;2022-11-02T16:46:39;9.85;;;2.03;;
52962;SDS011;38827;53.024;6.596;2022-11-02T16:49:15;9.60;;;2.55;;
52962;SDS011;38827;53.024;6.596;2022-11-02T16:51:54;7.30;;;2.03;;
52962;SDS011;38827;53.024;6.596;2022-11-02T16:56:54;9.88;;;2.10;;
52962;SDS011;38827;53.024;6.596;2022-11-02T16:59:28;12.10;;;2.45;;
52962;SDS011;38827;53.024;6.596;2022-11-02T17:01:58;10.40;;;2.40;;
52962;SDS011;38827;53.024;6.596;2022-11-02T17:04:28;12.20;;;2.65;;
52962;SDS011;38827;53.024;6.596;2022-11-02T17:07:17;12.70;;;2.63;;
52962;SDS011;38827;53.024;6.596;2022-11-02T17:10:23;9.95;;;2.28;;
52962;SDS011;38827;53.024;6.596;2022-11-02T17:12:53;11.35;;;2.85;;
52962;SDS011;38827;53.024;6.596;2022-11-02T17:15:28;7.60;;;2.00;;
52962;SDS011;38827;53.024;6.596;2022-11-02T17:20:32;13.60;;;2.30;;
52962;SDS011;38827;53.024;6.596;2022-11-02T17:23:02;11.05;;;1.95;;
52962;SDS011;38827;53.024;6.596;2022-11-02T17:25:34;16.08;;;2.10;;
52962;SDS011;38827;53.024;6.596;2022-11-02T17:28:02;8.55;;;1.92;;
52962;SDS011;38827;53.024;6.596;2022-11-02T17:30:48;6.05;;;1.98;;
52962;SDS011;38827;53.024;6.596;2022-11-02T17:35:49;9.00;;;1.88;;
52962;SDS011;38827;53.024;6.596;2022-11-02T17:38:16;9.93;;;2.00;;
52962;SDS011;38827;53.024;6.596;2022-11-02T17:40:46;13.73;;;2.80;;
52962;SDS011;38827;53.024;6.596;2022-11-02T17:43:23;15.27;;;2.70;;
52962;SDS011;38827;53.024;6.596;2022-11-02T17:45:53;13.13;;;2.08;;
52962;SDS011;38827;53.024;6.596;2022-11-02T17:48:19;8.70;;;2.10;;
52962;SDS011;38827;53.024;6.596;2022-11-02T17:50:45;11.35;;;2.15;;
52962;SDS011;38827;53.024;6.596;2022-11-02T17:53:11;11.07;;;2.08;;
52962;SDS011;38827;53.024;6.596;2022-11-02T17:55:37;17.83;;;3.50;;
52962;SDS011;38827;53.024;6.596;2022-11-02T17:58:04;9.52;;;2.10;;
52962;SDS011;38827;53.024;6.596;2022-11-02T18:00:31;10.45;;;2.28;;
52962;SDS011;38827;53.024;6.596;2022-11-02T18:02:59;12.48;;;2.50;;
52962;SDS011;38827;53.024;6.596;2022-11-02T18:05:27;12.05;;;1.70;;
52962;SDS011;38827;53.024;6.596;2022-11-02T18:07:57;9.73;;;2.20;;
52962;SDS011;38827;53.024;6.596;2022-11-02T18:10:24;15.80;;;2.20;;
52962;SDS011;38827;53.024;6.596;2022-11-02T18:12:51;13.75;;;2.30;;
52962;SDS011;38827;53.024;6.596;2022-11-02T18:15:20;15.43;;;2.58;;
52962;SDS011;38827;53.024;6.596;2022-11-02T18:17:48;8.77;;;2.05;;
52962;SDS011;38827;53.024;6.596;2022-11-02T18:20:14;13.27;;;2.40;;
52962;SDS011;38827;53.024;6.596;2022-11-02T18:22:40;10.50;;;2.28;;
52962;SDS011;38827;53.024;6.596;2022-11-02T18:25:28;15.77;;;2.45;;
52962;SDS011;38827;53.024;6.596;2022-11-02T18:28:17;13.98;;;2.47;;
52962;SDS011;38827;53.024;6.596;2022-11-02T18:30:52;11.40;;;2.67;;
52962;SDS011;38827;53.024;6.596;2022-11-02T18:33:27;15.93;;;3.47;;
52962;SDS011;38827;53.024;6.596;2022-11-02T18:35:59;9.82;;;2.53;;
52962;SDS011;38827;53.024;6.596;2022-11-02T18:38:39;11.90;;;2.50;;
52962;SDS011;38827;53.024;6.596;2022-11-02T18:41:06;12.20;;;2.70;;
52962;SDS011;38827;53.024;6.596;2022-11-02T18:43:56;11.75;;;2.40;;
52962;SDS011;38827;53.024;6.596;2022-11-02T18:46:23;18.67;;;2.95;;
52962;SDS011;38827;53.024;6.596;2022-11-02T18:48:49;18.42;;;3.03;;
52962;SDS011;38827;53.024;6.596;2022-11-02T18:51:15;12.63;;;2.33;;
52962;SDS011;38827;53.024;6.596;2022-11-02T18:53:41;17.55;;;3.15;;
52962;SDS011;38827;53.024;6.596;2022-11-02T18:56:27;12.27;;;2.55;;
52962;SDS011;38827;53.024;6.596;2022-11-02T18:58:53;11.70;;;2.63;;
52962;SDS011;38827;53.024;6.596;2022-11-02T19:01:47;11.65;;;2.55;;
52962;SDS011;38827;53.024;6.596;2022-11-02T19:08:24;14.48;;;2.55;;
52962;SDS011;38827;53.024;6.596;2022-11-02T19:11:15;14.90;;;2.58;;
52962;SDS011;38827;53.024;6.596;2022-11-02T19:13:59;13.02;;;2.38;;
52962;SDS011;38827;53.024;6.596;2022-11-02T19:22:31;11.48;;;2.75;;
52962;SDS011;38827;53.024;6.596;2022-11-02T19:36:56;12.52;;;2.47;;
52962;SDS011;38827;53.024;6.596;2022-11-02T19:39:22;8.68;;;2.20;;
52962;SDS011;38827;53.024;6.596;2022-11-02T19:41:50;20.52;;;3.00;;
52962;SDS011;38827;53.024;6.596;2022-11-02T19:44:39;16.35;;;3.03;;
52962;SDS011;38827;53.024;6.596;2022-11-02T19:49:53;11.98;;;2.83;;
52962;SDS011;38827;53.024;6.596;2022-11-02T19:52:21;13.85;;;2.72;;
52962;SDS011;38827;53.024;6.596;2022-11-02T19:55:06;13.10;;;2.25;;
52962;SDS011;38827;53.024;6.596;2022-11-02T19:57:32;15.50;;;3.25;;
52962;SDS011;38827;53.024;6.596;2022-11-02T20:00:19;15.43;;;2.97;;
52962;SDS011;38827;53.024;6.596;2022-11-02T20:02:53;10.50;;;2.10;;
52962;SDS011;38827;53.024;6.596;2022-11-02T20:05:19;12.32;;;2.30;;
52962;SDS011;38827;53.024;6.596;2022-11-02T20:07:51;8.50;;;1.95;;
52962;SDS011;38827;53.024;6.596;2022-11-02T20:10:28;10.35;;;2.22;;
52962;SDS011;38827;53.024;6.596;2022-11-02T20:12:56;15.25;;;2.80;;
52962;SDS011;38827;53.024;6.596;2022-11-02T20:15:24;9.75;;;3.00;;
52962;SDS011;38827;53.024;6.596;2022-11-02T20:18:05;12.23;;;2.33;;
52962;SDS011;38827;53.024;6.596;2022-11-02T20:20:30;10.05;;;2.63;;
52962;SDS011;38827;53.024;6.596;2022-11-02T20:23:24;12.18;;;2.47;;